sensor_id;sensor_type;location;lat;lon;timestamp;pressure;altitude;pressure_sealevel;temperature;humidity
61318;BME280;47201;40.428;-8.436;2023-06-26T00:01:08;100975.00;;;18.45;100.00
61318;BME280;47201;40.428;-8.436;2023-06-26T00:03:09;100978.44;;;18.48;100.00
61318;BME280;47201;40.428;-8.436;2023-06-26T00:05:13;100978.28;;;18.53;100.00
61318;BME280;47201;40.428;-8.436;2023-06-26T00:07:14;100972.78;;;18.61;100.00
61318;BME280;47201;40.428;-8.436;2023-06-26T00:09:15;100972.47;;;18.70;100.00
61318;BME280;47201;40.428;-8.436;2023-06-26T00:11:15;100982.06;;;18.74;100.00
61318;BME280;47201;40.428;-8.436;2023-06-26T00:13:16;100976.00;;;18.70;100.00
61318;BME280;47201;40.428;-8.436;2023-06-26T00:15:17;100972.59;;;18.65;100.00
61318;BME280;47201;40.428;-8.436;2023-06-26T00:17:18;100974.41;;;18.65;100.00
61318;BME280;47201;40.428;-8.436;2023-06-26T00:19:19;100976.19;;;18.64;100.00
61318;BME280;47201;40.428;-8.436;2023-06-26T00:21:19;100978.72;;;18.67;100.00
61318;BME280;47201;40.428;-8.436;2023-06-26T00:23:20;100976.06;;;18.69;100.00
61318;BME280;47201;40.428;-8.436;2023-06-26T00:25:21;100971.56;;;18.71;100.00
61318;BME280;47201;40.428;-8.436;2023-06-26T00:27:21;100965.47;;;18.69;100.00
61318;BME280;47201;40.428;-8.436;2023-06-26T00:29:22;100965.34;;;18.72;100.00
61318;BME280;47201;40.428;-8.436;2023-06-26T00:31:23;100965.34;;;18.72;100.00
61318;BME280;47201;40.428;-8.436;2023-06-26T00:33:23;100961.25;;;18.62;100.00
61318;BME280;47201;40.428;-8.436;2023-06-26T00:35:24;100968.59;;;18.53;100.00
61318;BME280;47201;40.428;-8.436;2023-06-26T00:37:25;100958.91;;;18.52;100.00
61318;BME280;47201;40.428;-8.436;2023-06-26T00:39:26;100950.22;;;18.47;100.00
61318;BME280;47201;40.428;-8.436;2023-06-26T00:41:29;100959.00;;;18.49;100.00
61318;BME280;47201;40.428;-8.436;2023-06-26T00:43:30;100958.91;;;18.52;100.00
61318;BME280;47201;40.428;-8.436;2023-06-26T00:45:30;100953.50;;;18.55;100.00
61318;BME280;47201;40.428;-8.436;2023-06-26T00:47:31;100953.41;;;18.59;100.00
61318;BME280;47201;40.428;-8.436;2023-06-26T00:49:32;100955.94;;;18.62;100.00
61318;BME280;47201;40.428;-8.436;2023-06-26T00:51:33;100948.69;;;18.68;100.00
61318;BME280;47201;40.428;-8.436;2023-06-26T00:53:34;100952.31;;;18.66;100.00
61318;BME280;47201;40.428;-8.436;2023-06-26T00:55:35;100957.59;;;18.66;100.00
61318;BME280;47201;40.428;-8.436;2023-06-26T00:57:36;100956.78;;;18.64;100.00
61318;BME280;47201;40.428;-8.436;2023-06-26T00:59:38;100945.28;;;18.65;100.00
61318;BME280;47201;40.428;-8.436;2023-06-26T01:01:39;100951.34;;;18.68;100.00
61318;BME280;47201;40.428;-8.436;2023-06-26T01:03:39;100939.00;;;18.69;100.00
61318;BME280;47201;40.428;-8.436;2023-06-26T01:05:40;100936.47;;;18.64;100.00
61318;BME280;47201;40.428;-8.436;2023-06-26T01:07:41;100951.69;;;18.58;100.00
61318;BME280;47201;40.428;-8.436;2023-06-26T01:09:42;100952.09;;;18.44;100.00
61318;BME280;47201;40.428;-8.436;2023-06-26T01:11:43;100945.56;;;18.26;100.00
61318;BME280;47201;40.428;-8.436;2023-06-26T01:13:43;100945.25;;;18.06;100.00
61318;BME280;47201;40.428;-8.436;2023-06-26T01:15:46;100937.56;;;17.99;100.00
61318;BME280;47201;40.428;-8.436;2023-06-26T01:17:47;100943.00;;;17.92;100.00
61318;BME280;47201;40.428;-8.436;2023-06-26T01:19:48;100940.47;;;17.88;100.00
61318;BME280;47201;40.428;-8.436;2023-06-26T01:21:51;100935.56;;;17.74;100.00
61318;BME280;47201;40.428;-8.436;2023-06-26T01:24:12;100933.75;;;17.76;100.00
61318;BME280;47201;40.428;-8.436;2023-06-26T01:26:23;100930.56;;;17.65;100.00
61318;BME280;47201;40.428;-8.436;2023-06-26T01:28:27;100936.09;;;17.54;100.00
61318;BME280;47201;40.428;-8.436;2023-06-26T01:30:28;100932.88;;;17.42;100.00
61318;BME280;47201;40.428;-8.436;2023-06-26T01:32:31;100933.00;;;17.38;100.00
61318;BME280;47201;40.428;-8.436;2023-06-26T01:34:32;100935.66;;;17.38;100.00
61318;BME280;47201;40.428;-8.436;2023-06-26T01:36:33;100927.81;;;17.35;100.00
61318;BME280;47201;40.428;-8.436;2023-06-26T01:38:34;100925.19;;;17.35;100.00
61318;BME280;47201;40.428;-8.436;2023-06-26T01:40:37;100924.19;;;17.39;100.00
61318;BME280;47201;40.428;-8.436;2023-06-26T01:42:39;100926.66;;;17.45;100.00
61318;BME280;47201;40.428;-8.436;2023-06-26T01:44:44;100925.75;;;17.46;100.00
61318;BME280;47201;40.428;-8.436;2023-06-26T01:46:59;100914.34;;;17.44;100.00
61318;BME280;47201;40.428;-8.436;2023-06-26T01:49:29;100916.91;;;17.47;100.00
61318;BME280;47201;40.428;-8.436;2023-06-26T01:51:38;100911.81;;;17.39;100.00
61318;BME280;47201;40.428;-8.436;2023-06-26T01:53:45;100911.81;;;17.39;100.00
61318;BME280;47201;40.428;-8.436;2023-06-26T01:56:00;100907.59;;;17.32;100.00
61318;BME280;47201;40.428;-8.436;2023-06-26T01:58:03;100914.75;;;17.28;100.00
61318;BME280;47201;40.428;-8.436;2023-06-26T02:00:05;100910.91;;;17.42;100.00
61318;BME280;47201;40.428;-8.436;2023-06-26T02:02:14;100907.25;;;17.46;100.00
61318;BME280;47201;40.428;-8.436;2023-06-26T02:04:14;100908.03;;;17.50;100.00
61318;BME280;47201;40.428;-8.436;2023-06-26T02:06:15;100909.66;;;17.54;100.00
61318;BME280;47201;40.428;-8.436;2023-06-26T02:08:16;100905.16;;;17.57;100.00
61318;BME280;47201;40.428;-8.436;2023-06-26T02:10:22;100893.69;;;17.58;100.00
61318;BME280;47201;40.428;-8.436;2023-06-26T02:12:23;100895.38;;;17.61;100.00
61318;BME280;47201;40.428;-8.436;2023-06-26T02:14:23;100895.25;;;17.66;100.00
61318;BME280;47201;40.428;-8.436;2023-06-26T02:16:24;100901.28;;;17.71;100.00
61318;BME280;47201;40.428;-8.436;2023-06-26T02:18:25;100902.19;;;17.70;100.00
61318;BME280;47201;40.428;-8.436;2023-06-26T02:20:25;100896.97;;;17.68;100.00
61318;BME280;47201;40.428;-8.436;2023-06-26T02:22:26;100897.03;;;17.65;100.00
61318;BME280;47201;40.428;-8.436;2023-06-26T02:24:28;100910.31;;;17.62;100.00
61318;BME280;47201;40.428;-8.436;2023-06-26T02:26:32;100904.13;;;17.65;100.00
61318;BME280;47201;40.428;-8.436;2023-06-26T02:28:32;100898.66;;;17.71;100.00
61318;BME280;47201;40.428;-8.436;2023-06-26T02:30:34;100900.09;;;17.81;100.00
61318;BME280;47201;40.428;-8.436;2023-06-26T02:32:35;100896.50;;;17.84;100.00
61318;BME280;47201;40.428;-8.436;2023-06-26T02:34:36;100899.13;;;17.84;100.00
61318;BME280;47201;40.428;-8.436;2023-06-26T02:36:36;100899.19;;;17.82;100.00
61318;BME280;47201;40.428;-8.436;2023-06-26T02:38:39;100896.59;;;17.81;100.00
61318;BME280;47201;40.428;-8.436;2023-06-26T02:40:40;100900.09;;;17.81;100.00
61318;BME280;47201;40.428;-8.436;2023-06-26T02:42:41;100896.56;;;17.82;100.00
61318;BME280;47201;40.428;-8.436;2023-06-26T02:44:41;100902.75;;;17.81;100.00
61318;BME280;47201;40.428;-8.436;2023-06-26T02:46:42;100899.25;;;17.81;100.00
61318;BME280;47201;40.428;-8.436;2023-06-26T02:48:43;100902.72;;;17.83;100.00
61318;BME280;47201;40.428;-8.436;2023-06-26T02:50:44;100897.38;;;17.84;100.00
61318;BME280;47201;40.428;-8.436;2023-06-26T02:52:48;100893.84;;;17.85;100.00
61318;BME280;47201;40.428;-8.436;2023-06-26T02:54:53;100898.16;;;17.88;100.00
61318;BME280;47201;40.428;-8.436;2023-06-26T02:56:54;100894.63;;;17.87;100.00
61318;BME280;47201;40.428;-8.436;2023-06-26T02:58:59;100898.09;;;17.89;100.00
61318;BME280;47201;40.428;-8.436;2023-06-26T03:01:02;100891.06;;;17.90;100.00
61318;BME280;47201;40.428;-8.436;2023-06-26T03:03:03;100895.47;;;17.89;100.00
61318;BME280;47201;40.428;-8.436;2023-06-26T03:05:04;100889.31;;;17.89;100.00
61318;BME280;47201;40.428;-8.436;2023-06-26T03:07:06;100893.69;;;17.90;100.00
61318;BME280;47201;40.428;-8.436;2023-06-26T03:09:06;100894.56;;;17.90;100.00
61318;BME280;47201;40.428;-8.436;2023-06-26T03:11:08;100894.59;;;17.89;100.00
61318;BME280;47201;40.428;-8.436;2023-06-26T03:13:10;100904.31;;;17.88;100.00
61318;BME280;47201;40.428;-8.436;2023-06-26T03:15:11;100904.41;;;17.85;100.00
61318;BME280;47201;40.428;-8.436;2023-06-26T03:17:13;100908.78;;;17.86;100.00
61318;BME280;47201;40.428;-8.436;2023-06-26T03:19:15;100907.06;;;17.85;100.00
61318;BME280;47201;40.428;-8.436;2023-06-26T03:21:38;100904.47;;;17.82;100.00
61318;BME280;47201;40.428;-8.436;2023-06-26T03:23:39;100906.28;;;17.82;100.00
61318;BME280;47201;40.428;-8.436;2023-06-26T03:25:40;100902.56;;;17.87;100.00
61318;BME280;47201;40.428;-8.436;2023-06-26T03:27:54;100897.28;;;17.87;100.00
61318;BME280;47201;40.428;-8.436;2023-06-26T03:29:55;100906.03;;;17.89;100.00
61318;BME280;47201;40.428;-8.436;2023-06-26T03:31:57;100904.13;;;17.95;100.00
61318;BME280;47201;40.428;-8.436;2023-06-26T03:34:01;100901.44;;;17.98;100.00
61318;BME280;47201;40.428;-8.436;2023-06-26T03:36:01;100898.81;;;17.95;100.00
61318;BME280;47201;40.428;-8.436;2023-06-26T03:38:03;100902.34;;;17.97;100.00
61318;BME280;47201;40.428;-8.436;2023-06-26T03:40:04;100909.38;;;17.98;100.00
61318;BME280;47201;40.428;-8.436;2023-06-26T03:42:06;100904.00;;;18.01;100.00
61318;BME280;47201;40.428;-8.436;2023-06-26T03:44:06;100898.59;;;18.04;100.00
61318;BME280;47201;40.428;-8.436;2023-06-26T03:46:17;100897.81;;;18.02;100.00
61318;BME280;47201;40.428;-8.436;2023-06-26T03:48:17;100902.97;;;18.05;100.00
61318;BME280;47201;40.428;-8.436;2023-06-26T03:50:19;100902.84;;;18.10;100.00
61318;BME280;47201;40.428;-8.436;2023-06-26T03:52:20;100901.03;;;18.12;100.00
61318;BME280;47201;40.428;-8.436;2023-06-26T03:54:21;100906.28;;;18.13;100.00
61318;BME280;47201;40.428;-8.436;2023-06-26T03:56:22;100903.63;;;18.13;100.00
61318;BME280;47201;40.428;-8.436;2023-06-26T03:58:23;100904.47;;;18.14;100.00
61318;BME280;47201;40.428;-8.436;2023-06-26T04:00:25;100899.34;;;18.09;100.00
61318;BME280;47201;40.428;-8.436;2023-06-26T04:02:26;100902.97;;;18.05;100.00
61318;BME280;47201;40.428;-8.436;2023-06-26T04:04:27;100905.63;;;18.05;100.00
61318;BME280;47201;40.428;-8.436;2023-06-26T04:06:29;100899.38;;;18.07;100.00
61318;BME280;47201;40.428;-8.436;2023-06-26T04:08:31;100903.69;;;18.10;100.00
61318;BME280;47201;40.428;-8.436;2023-06-26T04:10:32;100899.25;;;18.12;100.00
61318;BME280;47201;40.428;-8.436;2023-06-26T04:12:33;100903.69;;;18.10;100.00
61318;BME280;47201;40.428;-8.436;2023-06-26T04:14:33;100900.25;;;18.08;100.00
61318;BME280;47201;40.428;-8.436;2023-06-26T04:16:34;100897.50;;;18.11;100.00
61318;BME280;47201;40.428;-8.436;2023-06-26T04:18:35;100894.84;;;18.13;100.00
61318;BME280;47201;40.428;-8.436;2023-06-26T04:20:39;100893.88;;;18.14;100.00
61318;BME280;47201;40.428;-8.436;2023-06-26T04:22:41;100894.09;;;18.07;100.00
61318;BME280;47201;40.428;-8.436;2023-06-26T04:24:42;100898.03;;;17.92;100.00
61318;BME280;47201;40.428;-8.436;2023-06-26T04:26:43;100891.38;;;17.79;100.00
61318;BME280;47201;40.428;-8.436;2023-06-26T04:28:45;100896.91;;;17.70;100.00
61318;BME280;47201;40.428;-8.436;2023-06-26T04:30:46;100895.44;;;17.59;100.00
61318;BME280;47201;40.428;-8.436;2023-06-26T04:32:47;100886.75;;;17.54;100.00
61318;BME280;47201;40.428;-8.436;2023-06-26T04:34:47;100890.50;;;17.47;100.00
61318;BME280;47201;40.428;-8.436;2023-06-26T04:36:48;100886.28;;;17.40;100.00
61318;BME280;47201;40.428;-8.436;2023-06-26T04:38:51;100889.09;;;17.34;100.00
61318;BME280;47201;40.428;-8.436;2023-06-26T04:40:51;100884.63;;;17.36;100.00
61318;BME280;47201;40.428;-8.436;2023-06-26T04:42:52;100881.22;;;17.31;100.00
61318;BME280;47201;40.428;-8.436;2023-06-26T04:44:53;100882.91;;;17.35;100.00
61318;BME280;47201;40.428;-8.436;2023-06-26T04:46:53;100883.03;;;17.28;100.00
61318;BME280;47201;40.428;-8.436;2023-06-26T04:48:54;100878.72;;;17.26;100.00
61318;BME280;47201;40.428;-8.436;2023-06-26T04:50:55;100884.91;;;17.25;100.00
61318;BME280;47201;40.428;-8.436;2023-06-26T04:52:56;100891.84;;;17.29;100.00
61318;BME280;47201;40.428;-8.436;2023-06-26T04:54:57;100886.63;;;17.27;100.00
61318;BME280;47201;40.428;-8.436;2023-06-26T04:57:00;100889.03;;;17.35;100.00
61318;BME280;47201;40.428;-8.436;2023-06-26T04:59:01;100890.50;;;17.47;100.00
61318;BME280;47201;40.428;-8.436;2023-06-26T05:01:02;100893.97;;;17.48;100.00
61318;BME280;47201;40.428;-8.436;2023-06-26T05:03:02;100892.41;;;17.42;100.00
61318;BME280;47201;40.428;-8.436;2023-06-26T05:05:03;100894.28;;;17.37;100.00
61318;BME280;47201;40.428;-8.436;2023-06-26T05:07:04;100891.72;;;17.34;100.00
61318;BME280;47201;40.428;-8.436;2023-06-26T05:09:05;100894.50;;;17.29;100.00
61318;BME280;47201;40.428;-8.436;2023-06-26T05:11:06;100891.09;;;17.24;100.00
61318;BME280;47201;40.428;-8.436;2023-06-26T05:13:06;100889.50;;;17.17;100.00
61318;BME280;47201;40.428;-8.436;2023-06-26T05:15:07;100891.25;;;17.18;100.00
61318;BME280;47201;40.428;-8.436;2023-06-26T05:17:08;100888.72;;;17.15;100.00
61318;BME280;47201;40.428;-8.436;2023-06-26T05:19:09;100885.00;;;17.20;100.00
61318;BME280;47201;40.428;-8.436;2023-06-26T05:21:10;100888.44;;;17.24;100.00
61318;BME280;47201;40.428;-8.436;2023-06-26T05:23:11;100883.88;;;17.31;100.00
61318;BME280;47201;40.428;-8.436;2023-06-26T05:25:13;100891.06;;;17.25;100.00
61318;BME280;47201;40.428;-8.436;2023-06-26T05:27:14;100895.56;;;17.22;100.00
61318;BME280;47201;40.428;-8.436;2023-06-26T05:29:21;100892.03;;;17.21;100.00
61318;BME280;47201;40.428;-8.436;2023-06-26T05:31:22;100890.41;;;17.17;100.00
61318;BME280;47201;40.428;-8.436;2023-06-26T05:33:25;100884.31;;;17.13;100.00
61318;BME280;47201;40.428;-8.436;2023-06-26T05:35:28;100886.03;;;17.16;100.00
61318;BME280;47201;40.428;-8.436;2023-06-26T05:37:31;100887.09;;;17.09;100.00
61318;BME280;47201;40.428;-8.436;2023-06-26T05:39:32;100887.13;;;17.07;100.00
61318;BME280;47201;40.428;-8.436;2023-06-26T05:41:33;100883.66;;;17.05;100.00
61318;BME280;47201;40.428;-8.436;2023-06-26T05:43:34;100886.25;;;17.07;100.00
61318;BME280;47201;40.428;-8.436;2023-06-26T05:45:34;100889.69;;;17.10;100.00
61318;BME280;47201;40.428;-8.436;2023-06-26T05:47:35;100894.00;;;17.15;100.00
61318;BME280;47201;40.428;-8.436;2023-06-26T05:49:36;100885.13;;;17.17;100.00
61318;BME280;47201;40.428;-8.436;2023-06-26T05:51:37;100887.81;;;17.14;100.00
61318;BME280;47201;40.428;-8.436;2023-06-26T05:53:38;100892.19;;;17.15;100.00
61318;BME280;47201;40.428;-8.436;2023-06-26T05:55:39;100895.69;;;17.17;100.00
61318;BME280;47201;40.428;-8.436;2023-06-26T05:57:42;100902.03;;;17.10;100.00
61318;BME280;47201;40.428;-8.436;2023-06-26T05:59:43;100893.44;;;17.02;100.00
61318;BME280;47201;40.428;-8.436;2023-06-26T06:01:45;100893.50;;;16.99;100.00
61318;BME280;47201;40.428;-8.436;2023-06-26T06:03:46;100893.38;;;17.03;100.00
61318;BME280;47201;40.428;-8.436;2023-06-26T06:05:46;100896.00;;;17.05;100.00
61318;BME280;47201;40.428;-8.436;2023-06-26T06:07:47;100900.50;;;17.01;100.00
61318;BME280;47201;40.428;-8.436;2023-06-26T06:09:48;100893.28;;;17.08;100.00
61318;BME280;47201;40.428;-8.436;2023-06-26T06:11:48;100900.13;;;17.15;100.00
61318;BME280;47201;40.428;-8.436;2023-06-26T06:13:49;100900.69;;;17.28;100.00
61318;BME280;47201;40.428;-8.436;2023-06-26T06:15:50;100907.69;;;17.29;100.00
61318;BME280;47201;40.428;-8.436;2023-06-26T06:17:51;100901.41;;;17.33;100.00
61318;BME280;47201;40.428;-8.436;2023-06-26T06:19:51;100899.66;;;17.34;100.00
61318;BME280;47201;40.428;-8.436;2023-06-26T06:21:52;100898.59;;;17.41;100.00
61318;BME280;47201;40.428;-8.436;2023-06-26T06:23:53;100906.47;;;17.42;100.00
61318;BME280;47201;40.428;-8.436;2023-06-26T06:25:54;100907.13;;;17.51;100.00
61318;BME280;47201;40.428;-8.436;2023-06-26T06:27:54;100908.56;;;17.63;100.00
61318;BME280;47201;40.428;-8.436;2023-06-26T06:29:55;100905.75;;;17.69;100.00
61318;BME280;47201;40.428;-8.436;2023-06-26T06:31:56;100911.88;;;17.69;100.00
61318;BME280;47201;40.428;-8.436;2023-06-26T06:33:57;100912.66;;;17.74;100.00
61318;BME280;47201;40.428;-8.436;2023-06-26T06:36:00;100921.00;;;17.90;100.00
61318;BME280;47201;40.428;-8.436;2023-06-26T06:38:01;100918.81;;;18.06;100.00
61318;BME280;47201;40.428;-8.436;2023-06-26T06:40:02;100926.28;;;18.22;100.00
61318;BME280;47201;40.428;-8.436;2023-06-26T06:42:04;100926.59;;;18.41;100.00
61318;BME280;47201;40.428;-8.436;2023-06-26T06:44:05;100930.50;;;18.58;100.00
61318;BME280;47201;40.428;-8.436;2023-06-26T06:46:05;100936.22;;;18.72;100.00
61318;BME280;47201;40.428;-8.436;2023-06-26T06:48:06;100929.59;;;18.85;100.00
61318;BME280;47201;40.428;-8.436;2023-06-26T06:50:07;100937.28;;;18.95;100.00
61318;BME280;47201;40.428;-8.436;2023-06-26T06:52:10;100930.94;;;19.00;100.00
61318;BME280;47201;40.428;-8.436;2023-06-26T06:54:11;100928.78;;;19.12;100.00
61318;BME280;47201;40.428;-8.436;2023-06-26T06:56:11;100939.00;;;19.23;100.00
61318;BME280;47201;40.428;-8.436;2023-06-26T06:58:12;100933.41;;;19.32;100.00
61318;BME280;47201;40.428;-8.436;2023-06-26T07:00:13;100938.19;;;19.47;100.00
61318;BME280;47201;40.428;-8.436;2023-06-26T07:02:16;100935.22;;;19.57;100.00
61318;BME280;47201;40.428;-8.436;2023-06-26T07:04:17;100943.00;;;19.61;100.00
61318;BME280;47201;40.428;-8.436;2023-06-26T07:06:18;100939.22;;;19.69;100.00
61318;BME280;47201;40.428;-8.436;2023-06-26T07:08:20;100942.63;;;19.72;100.00
61318;BME280;47201;40.428;-8.436;2023-06-26T07:10:21;100947.69;;;19.78;100.00
61318;BME280;47201;40.428;-8.436;2023-06-26T07:12:22;100953.41;;;19.66;100.00
61318;BME280;47201;40.428;-8.436;2023-06-26T07:14:22;100952.13;;;19.78;100.00
61318;BME280;47201;40.428;-8.436;2023-06-26T07:16:23;100947.69;;;19.78;100.00
61318;BME280;47201;40.428;-8.436;2023-06-26T07:18:24;100957.25;;;19.84;100.00
61318;BME280;47201;40.428;-8.436;2023-06-26T07:20:24;100959.50;;;19.95;100.00
61318;BME280;47201;40.428;-8.436;2023-06-26T07:22:25;100961.41;;;19.91;100.00
61318;BME280;47201;40.428;-8.436;2023-06-26T07:24:26;100961.28;;;19.69;100.00
61318;BME280;47201;40.428;-8.436;2023-06-26T07:26:26;100960.81;;;19.58;100.00
61318;BME280;47201;40.428;-8.436;2023-06-26T07:28:27;100968.41;;;19.67;100.00
61318;BME280;47201;40.428;-8.436;2023-06-26T07:30:28;100967.41;;;19.71;100.00
61318;BME280;47201;40.428;-8.436;2023-06-26T07:32:28;100972.94;;;19.90;100.00
61318;BME280;47201;40.428;-8.436;2023-06-26T07:34:29;100972.25;;;20.09;100.00
61318;BME280;47201;40.428;-8.436;2023-06-26T07:36:30;100968.16;;;20.24;100.00
61318;BME280;47201;40.428;-8.436;2023-06-26T07:38:30;100971.34;;;20.34;100.00
61318;BME280;47201;40.428;-8.436;2023-06-26T07:40:31;100979.41;;;20.31;100.00
61318;BME280;47201;40.428;-8.436;2023-06-26T07:42:32;100978.78;;;20.48;100.00
61318;BME280;47201;40.428;-8.436;2023-06-26T07:44:32;100984.13;;;20.46;100.00
61318;BME280;47201;40.428;-8.436;2023-06-26T07:46:33;100985.22;;;20.40;100.00
61318;BME280;47201;40.428;-8.436;2023-06-26T07:48:34;100986.97;;;20.41;100.00
61318;BME280;47201;40.428;-8.436;2023-06-26T07:50:34;100976.66;;;20.56;100.00
61318;BME280;47201;40.428;-8.436;2023-06-26T07:52:36;100974.81;;;20.58;100.00
61318;BME280;47201;40.428;-8.436;2023-06-26T07:54:36;100983.25;;;20.69;100.00
61318;BME280;47201;40.428;-8.436;2023-06-26T07:58:54;100978.88;;;21.13;100.00
61318;BME280;47201;40.428;-8.436;2023-06-26T08:00:55;100980.63;;;21.34;100.00
61318;BME280;47201;40.428;-8.436;2023-06-26T08:02:56;100972.81;;;21.52;100.00
61318;BME280;47201;40.428;-8.436;2023-06-26T08:04:56;100987.34;;;21.65;100.00
61318;BME280;47201;40.428;-8.436;2023-06-26T08:06:58;100989.66;;;21.73;100.00
61318;BME280;47201;40.428;-8.436;2023-06-26T08:08:59;100988.78;;;21.73;100.00
61318;BME280;47201;40.428;-8.436;2023-06-26T08:10:59;100991.56;;;21.69;100.00
61318;BME280;47201;40.428;-8.436;2023-06-26T08:13:00;100989.09;;;21.65;100.00
61318;BME280;47201;40.428;-8.436;2023-06-26T08:15:01;100994.84;;;21.76;100.00
61318;BME280;47201;40.428;-8.436;2023-06-26T08:17:03;101002.94;;;21.94;100.00
61318;BME280;47201;40.428;-8.436;2023-06-26T08:19:04;100998.81;;;21.86;100.00
61318;BME280;47201;40.428;-8.436;2023-06-26T08:21:04;101001.94;;;22.15;100.00
61318;BME280;47201;40.428;-8.436;2023-06-26T08:23:05;100996.53;;;22.38;100.00
61318;BME280;47201;40.428;-8.436;2023-06-26T08:25:06;100995.47;;;22.61;100.00
61318;BME280;47201;40.428;-8.436;2023-06-26T08:27:06;100995.09;;;23.05;100.00
61318;BME280;47201;40.428;-8.436;2023-06-26T08:29:08;100997.97;;;23.72;97.97
61318;BME280;47201;40.428;-8.436;2023-06-26T08:31:08;100987.41;;;24.38;93.67
61318;BME280;47201;40.428;-8.436;2023-06-26T08:33:09;100999.81;;;25.03;88.18
61318;BME280;47201;40.428;-8.436;2023-06-26T08:35:12;100994.06;;;25.41;85.55
61318;BME280;47201;40.428;-8.436;2023-06-26T08:37:13;100988.59;;;26.02;80.65
61318;BME280;47201;40.428;-8.436;2023-06-26T08:39:14;100988.81;;;26.28;81.55
61318;BME280;47201;40.428;-8.436;2023-06-26T08:41:14;100994.94;;;26.86;80.05
61318;BME280;47201;40.428;-8.436;2023-06-26T08:43:15;100997.31;;;27.18;79.10
61318;BME280;47201;40.428;-8.436;2023-06-26T08:45:16;100990.44;;;27.80;77.26
61318;BME280;47201;40.428;-8.436;2023-06-26T08:47:17;100992.16;;;28.20;76.60
61318;BME280;47201;40.428;-8.436;2023-06-26T08:51:28;100986.19;;;29.26;75.81
61318;BME280;47201;40.428;-8.436;2023-06-26T08:55:41;100992.78;;;31.58;73.83
61318;BME280;47201;40.428;-8.436;2023-06-26T08:57:43;100996.03;;;32.85;74.21
61318;BME280;47201;40.428;-8.436;2023-06-26T08:59:45;100996.94;;;33.82;78.24
61318;BME280;47201;40.428;-8.436;2023-06-26T09:01:46;100990.78;;;34.18;81.27
61318;BME280;47201;40.428;-8.436;2023-06-26T09:03:47;100983.97;;;34.14;83.52
61318;BME280;47201;40.428;-8.436;2023-06-26T09:05:48;100998.75;;;34.75;83.75
61318;BME280;47201;40.428;-8.436;2023-06-26T09:07:50;101001.44;;;35.21;84.50
61318;BME280;47201;40.428;-8.436;2023-06-26T09:09:52;101004.25;;;35.82;85.17
61318;BME280;47201;40.428;-8.436;2023-06-26T09:11:53;100997.59;;;36.03;84.46
61318;BME280;47201;40.428;-8.436;2023-06-26T09:13:55;101000.91;;;36.74;85.83
61318;BME280;47201;40.428;-8.436;2023-06-26T09:15:56;101000.63;;;37.19;85.85
61318;BME280;47201;40.428;-8.436;2023-06-26T09:17:57;100989.41;;;37.38;86.71
61318;BME280;47201;40.428;-8.436;2023-06-26T09:19:59;101003.66;;;37.32;87.17
61318;BME280;47201;40.428;-8.436;2023-06-26T09:21:59;100990.22;;;37.64;86.45
61318;BME280;47201;40.428;-8.436;2023-06-26T09:24:00;100983.56;;;37.66;87.24
61318;BME280;47201;40.428;-8.436;2023-06-26T09:26:05;100988.03;;;38.07;87.02
61318;BME280;47201;40.428;-8.436;2023-06-26T09:28:06;100980.19;;;38.44;87.12
61318;BME280;47201;40.428;-8.436;2023-06-26T09:30:08;100992.03;;;38.28;87.23
61318;BME280;47201;40.428;-8.436;2023-06-26T09:32:10;100992.56;;;38.31;87.42
61318;BME280;47201;40.428;-8.436;2023-06-26T09:34:12;100987.47;;;38.20;87.26
61318;BME280;47201;40.428;-8.436;2023-06-26T09:36:20;100986.91;;;38.24;88.11
61318;BME280;47201;40.428;-8.436;2023-06-26T09:38:25;100984.91;;;38.18;87.68
61318;BME280;47201;40.428;-8.436;2023-06-26T09:40:27;100990.75;;;38.78;87.33
61318;BME280;47201;40.428;-8.436;2023-06-26T09:42:29;100986.97;;;37.35;89.21
61318;BME280;47201;40.428;-8.436;2023-06-26T09:44:30;100972.91;;;37.96;88.90
61318;BME280;47201;40.428;-8.436;2023-06-26T09:46:32;100970.91;;;37.82;88.86
61318;BME280;47201;40.428;-8.436;2023-06-26T09:48:32;100972.13;;;38.19;88.80
61318;BME280;47201;40.428;-8.436;2023-06-26T09:50:34;100968.69;;;38.25;88.30
61318;BME280;47201;40.428;-8.436;2023-06-26T09:52:35;100969.28;;;37.14;89.57
61318;BME280;47201;40.428;-8.436;2023-06-26T09:54:36;100963.81;;;37.39;88.97
61318;BME280;47201;40.428;-8.436;2023-06-26T09:56:37;100971.34;;;38.42;88.37
61318;BME280;47201;40.428;-8.436;2023-06-26T09:58:39;100976.03;;;39.02;87.06
61318;BME280;47201;40.428;-8.436;2023-06-26T10:00:41;100973.47;;;38.86;87.31
61318;BME280;47201;40.428;-8.436;2023-06-26T10:02:43;100966.69;;;38.50;88.42
61318;BME280;47201;40.428;-8.436;2023-06-26T10:04:45;100965.16;;;38.48;88.14
61318;BME280;47201;40.428;-8.436;2023-06-26T10:06:46;100965.38;;;37.98;89.06
61318;BME280;47201;40.428;-8.436;2023-06-26T10:08:50;100965.28;;;37.67;89.30
61318;BME280;47201;40.428;-8.436;2023-06-26T10:10:52;100968.06;;;37.50;89.50
61318;BME280;47201;40.428;-8.436;2023-06-26T10:12:59;100972.94;;;38.59;88.07
61318;BME280;47201;40.428;-8.436;2023-06-26T10:15:03;100972.81;;;38.99;88.09
61318;BME280;47201;40.428;-8.436;2023-06-26T10:17:11;100975.41;;;39.54;87.26
61318;BME280;47201;40.428;-8.436;2023-06-26T10:19:17;100977.91;;;39.78;87.02
61318;BME280;47201;40.428;-8.436;2023-06-26T10:21:24;100972.00;;;39.37;87.12
61318;BME280;47201;40.428;-8.436;2023-06-26T10:23:27;100971.28;;;39.58;87.44
61318;BME280;47201;40.428;-8.436;2023-06-26T10:25:29;100962.47;;;39.32;88.33
61318;BME280;47201;40.428;-8.436;2023-06-26T10:27:36;100960.13;;;39.06;88.29
61318;BME280;47201;40.428;-8.436;2023-06-26T10:29:39;100958.69;;;38.72;88.35